sensor_id;sensor_type;location;lat;lon;timestamp;P1;durP1;ratioP1;P2;durP2;ratioP2
83145;SDS011;73037;51.110;4.706;2024-01-10T00:01:58;7.97;;;3.80;;
83145;SDS011;73037;51.110;4.706;2024-01-10T00:04:24;8.80;;;3.80;;
83145;SDS011;73037;51.110;4.706;2024-01-10T00:06:50;8.93;;;4.00;;
83145;SDS011;73037;51.110;4.706;2024-01-10T00:09:15;9.40;;;3.65;;
83145;SDS011;73037;51.110;4.706;2024-01-10T00:11:41;8.63;;;3.45;;
83145;SDS011;73037;51.110;4.706;2024-01-10T00:14:07;7.78;;;3.92;;
83145;SDS011;73037;51.110;4.706;2024-01-10T00:16:32;9.07;;;3.85;;
83145;SDS011;73037;51.110;4.706;2024-01-10T00:18:58;7.25;;;3.80;;
83145;SDS011;73037;51.110;4.706;2024-01-10T00:21:24;9.27;;;3.67;;
83145;SDS011;73037;51.110;4.706;2024-01-10T00:23:49;9.88;;;3.58;;
83145;SDS011;73037;51.110;4.706;2024-01-10T00:26:15;8.85;;;3.70;;
83145;SDS011;73037;51.110;4.706;2024-01-10T00:28:42;9.30;;;4.20;;
83145;SDS011;73037;51.110;4.706;2024-01-10T00:31:07;8.20;;;3.60;;
83145;SDS011;73037;51.110;4.706;2024-01-10T00:33:33;9.65;;;4.05;;
83145;SDS011;73037;51.110;4.706;2024-01-10T00:35:59;6.95;;;3.40;;
83145;SDS011;73037;51.110;4.706;2024-01-10T00:38:25;9.75;;;3.50;;
83145;SDS011;73037;51.110;4.706;2024-01-10T00:40:50;7.65;;;3.50;;
83145;SDS011;73037;51.110;4.706;2024-01-10T00:43:16;7.43;;;3.63;;
83145;SDS011;73037;51.110;4.706;2024-01-10T00:45:42;9.15;;;3.80;;
83145;SDS011;73037;51.110;4.706;2024-01-10T00:48:07;8.95;;;3.38;;
83145;SDS011;73037;51.110;4.706;2024-01-10T00:50:33;7.50;;;3.53;;
83145;SDS011;73037;51.110;4.706;2024-01-10T00:52:59;8.32;;;3.53;;
83145;SDS011;73037;51.110;4.706;2024-01-10T00:55:24;8.30;;;3.55;;
83145;SDS011;73037;51.110;4.706;2024-01-10T00:57:50;8.43;;;3.53;;
83145;SDS011;73037;51.110;4.706;2024-01-10T01:00:16;9.85;;;3.88;;
83145;SDS011;73037;51.110;4.706;2024-01-10T01:02:41;9.32;;;3.78;;
83145;SDS011;73037;51.110;4.706;2024-01-10T01:05:07;8.18;;;3.78;;
83145;SDS011;73037;51.110;4.706;2024-01-10T01:07:33;7.82;;;3.60;;
83145;SDS011;73037;51.110;4.706;2024-01-10T01:09:59;6.85;;;4.00;;
83145;SDS011;73037;51.110;4.706;2024-01-10T01:12:25;8.27;;;3.78;;
83145;SDS011;73037;51.110;4.706;2024-01-10T01:14:51;8.32;;;3.70;;
83145;SDS011;73037;51.110;4.706;2024-01-10T01:17:16;7.63;;;3.67;;
83145;SDS011;73037;51.110;4.706;2024-01-10T01:19:42;10.05;;;4.10;;
83145;SDS011;73037;51.110;4.706;2024-01-10T01:22:08;7.40;;;3.40;;
83145;SDS011;73037;51.110;4.706;2024-01-10T01:24:33;8.98;;;3.72;;
83145;SDS011;73037;51.110;4.706;2024-01-10T01:26:59;10.23;;;3.88;;
83145;SDS011;73037;51.110;4.706;2024-01-10T01:29:25;10.70;;;4.03;;
83145;SDS011;73037;51.110;4.706;2024-01-10T01:31:50;9.07;;;3.90;;
83145;SDS011;73037;51.110;4.706;2024-01-10T01:34:17;8.50;;;3.30;;
83145;SDS011;73037;51.110;4.706;2024-01-10T01:36:43;8.68;;;3.95;;
83145;SDS011;73037;51.110;4.706;2024-01-10T01:39:08;6.78;;;3.55;;
83145;SDS011;73037;51.110;4.706;2024-01-10T01:41:34;7.70;;;3.30;;
83145;SDS011;73037;51.110;4.706;2024-01-10T01:44:00;8.55;;;3.72;;
83145;SDS011;73037;51.110;4.706;2024-01-10T01:46:25;8.80;;;3.88;;
83145;SDS011;73037;51.110;4.706;2024-01-10T01:48:52;8.15;;;3.50;;
83145;SDS011;73037;51.110;4.706;2024-01-10T01:51:18;9.85;;;4.10;;
83145;SDS011;73037;51.110;4.706;2024-01-10T01:53:46;9.40;;;4.10;;
83145;SDS011;73037;51.110;4.706;2024-01-10T01:56:14;10.40;;;4.28;;
83145;SDS011;73037;51.110;4.706;2024-01-10T01:58:41;8.38;;;3.53;;
83145;SDS011;73037;51.110;4.706;2024-01-10T02:01:08;7.70;;;3.45;;
83145;SDS011;73037;51.110;4.706;2024-01-10T02:03:36;10.40;;;4.07;;
83145;SDS011;73037;51.110;4.706;2024-01-10T02:06:02;8.10;;;3.42;;
83145;SDS011;73037;51.110;4.706;2024-01-10T02:08:32;8.93;;;3.83;;
83145;SDS011;73037;51.110;4.706;2024-01-10T02:10:59;10.38;;;3.55;;
83145;SDS011;73037;51.110;4.706;2024-01-10T02:13:26;6.00;;;3.10;;
83145;SDS011;73037;51.110;4.706;2024-01-10T02:15:52;9.27;;;4.07;;
83145;SDS011;73037;51.110;4.706;2024-01-10T02:18:19;7.82;;;3.05;;
83145;SDS011;73037;51.110;4.706;2024-01-10T02:20:45;8.88;;;3.92;;
83145;SDS011;73037;51.110;4.706;2024-01-10T02:23:11;8.93;;;3.17;;
83145;SDS011;73037;51.110;4.706;2024-01-10T02:25:37;9.73;;;4.40;;
83145;SDS011;73037;51.110;4.706;2024-01-10T02:28:06;8.45;;;3.63;;
83145;SDS011;73037;51.110;4.706;2024-01-10T02:30:34;8.05;;;3.55;;
83145;SDS011;73037;51.110;4.706;2024-01-10T02:33:00;7.45;;;3.50;;
83145;SDS011;73037;51.110;4.706;2024-01-10T02:35:26;10.82;;;3.45;;
83145;SDS011;73037;51.110;4.706;2024-01-10T02:37:52;9.07;;;3.92;;
83145;SDS011;73037;51.110;4.706;2024-01-10T02:40:19;9.25;;;3.45;;
83145;SDS011;73037;51.110;4.706;2024-01-10T02:42:45;8.63;;;3.60;;
83145;SDS011;73037;51.110;4.706;2024-01-10T02:45:11;13.20;;;3.95;;
83145;SDS011;73037;51.110;4.706;2024-01-10T02:47:37;8.75;;;3.63;;
83145;SDS011;73037;51.110;4.706;2024-01-10T02:50:03;8.38;;;3.92;;
83145;SDS011;73037;51.110;4.706;2024-01-10T02:52:30;7.68;;;3.80;;
83145;SDS011;73037;51.110;4.706;2024-01-10T02:54:55;8.88;;;3.50;;
83145;SDS011;73037;51.110;4.706;2024-01-10T02:57:21;8.07;;;3.90;;
83145;SDS011;73037;51.110;4.706;2024-01-10T02:59:47;9.48;;;3.90;;
83145;SDS011;73037;51.110;4.706;2024-01-10T03:02:12;8.50;;;3.28;;
83145;SDS011;73037;51.110;4.706;2024-01-10T03:04:38;9.20;;;3.55;;
83145;SDS011;73037;51.110;4.706;2024-01-10T03:07:04;8.27;;;3.35;;
83145;SDS011;73037;51.110;4.706;2024-01-10T03:09:29;8.93;;;3.58;;
83145;SDS011;73037;51.110;4.706;2024-01-10T03:11:55;9.98;;;3.95;;
83145;SDS011;73037;51.110;4.706;2024-01-10T03:14:21;8.15;;;3.10;;
83145;SDS011;73037;51.110;4.706;2024-01-10T03:16:47;7.65;;;3.30;;
83145;SDS011;73037;51.110;4.706;2024-01-10T03:19:13;11.23;;;3.78;;
83145;SDS011;73037;51.110;4.706;2024-01-10T03:21:39;9.35;;;3.50;;
83145;SDS011;73037;51.110;4.706;2024-01-10T03:24:05;7.53;;;3.13;;
83145;SDS011;73037;51.110;4.706;2024-01-10T03:26:31;7.22;;;3.47;;
83145;SDS011;73037;51.110;4.706;2024-01-10T03:28:56;7.68;;;3.70;;
83145;SDS011;73037;51.110;4.706;2024-01-10T03:31:23;8.70;;;3.38;;
83145;SDS011;73037;51.110;4.706;2024-01-10T03:33:49;8.13;;;3.67;;
83145;SDS011;73037;51.110;4.706;2024-01-10T03:36:16;8.82;;;3.78;;
83145;SDS011;73037;51.110;4.706;2024-01-10T03:41:15;7.32;;;3.50;;
83145;SDS011;73037;51.110;4.706;2024-01-10T03:43:44;9.35;;;3.92;;
83145;SDS011;73037;51.110;4.706;2024-01-10T03:46:10;8.55;;;3.50;;
83145;SDS011;73037;51.110;4.706;2024-01-10T03:48:36;6.82;;;3.17;;
83145;SDS011;73037;51.110;4.706;2024-01-10T03:51:03;10.30;;;3.30;;
83145;SDS011;73037;51.110;4.706;2024-01-10T03:53:30;6.90;;;3.60;;
83145;SDS011;73037;51.110;4.706;2024-01-10T03:55:56;8.82;;;3.53;;
83145;SDS011;73037;51.110;4.706;2024-01-10T03:58:21;7.25;;;3.08;;
83145;SDS011;73037;51.110;4.706;2024-01-10T04:00:48;6.28;;;2.80;;
83145;SDS011;73037;51.110;4.706;2024-01-10T04:03:14;9.32;;;3.53;;
83145;SDS011;73037;51.110;4.706;2024-01-10T04:05:40;9.15;;;3.80;;
83145;SDS011;73037;51.110;4.706;2024-01-10T04:08:06;7.80;;;3.28;;
83145;SDS011;73037;51.110;4.706;2024-01-10T04:10:32;9.82;;;3.67;;
83145;SDS011;73037;51.110;4.706;2024-01-10T04:12:58;7.43;;;3.40;;
83145;SDS011;73037;51.110;4.706;2024-01-10T04:15:23;10.02;;;3.78;;
83145;SDS011;73037;51.110;4.706;2024-01-10T04:17:49;9.60;;;3.65;;
83145;SDS011;73037;51.110;4.706;2024-01-10T04:20:15;7.53;;;3.50;;
83145;SDS011;73037;51.110;4.706;2024-01-10T04:22:41;7.78;;;3.33;;
83145;SDS011;73037;51.110;4.706;2024-01-10T04:25:07;8.40;;;3.47;;
83145;SDS011;73037;51.110;4.706;2024-01-10T04:27:33;6.88;;;3.20;;
83145;SDS011;73037;51.110;4.706;2024-01-10T04:29:58;8.25;;;3.53;;
83145;SDS011;73037;51.110;4.706;2024-01-10T04:32:24;7.70;;;3.42;;
83145;SDS011;73037;51.110;4.706;2024-01-10T04:34:50;6.75;;;3.00;;
83145;SDS011;73037;51.110;4.706;2024-01-10T04:37:16;6.68;;;3.35;;
83145;SDS011;73037;51.110;4.706;2024-01-10T04:39:42;9.43;;;3.22;;
83145;SDS011;73037;51.110;4.706;2024-01-10T04:42:08;8.05;;;3.15;;
83145;SDS011;73037;51.110;4.706;2024-01-10T04:44:36;6.43;;;3.17;;
83145;SDS011;73037;51.110;4.706;2024-01-10T04:47:02;7.68;;;3.50;;
83145;SDS011;73037;51.110;4.706;2024-01-10T04:49:28;8.18;;;3.63;;
83145;SDS011;73037;51.110;4.706;2024-01-10T04:51:54;9.80;;;3.50;;
83145;SDS011;73037;51.110;4.706;2024-01-10T04:54:19;8.77;;;2.95;;
83145;SDS011;73037;51.110;4.706;2024-01-10T04:56:45;5.90;;;3.22;;
83145;SDS011;73037;51.110;4.706;2024-01-10T04:59:11;6.93;;;3.25;;
83145;SDS011;73037;51.110;4.706;2024-01-10T05:01:37;6.88;;;3.42;;
83145;SDS011;73037;51.110;4.706;2024-01-10T05:04:03;7.40;;;3.42;;
83145;SDS011;73037;51.110;4.706;2024-01-10T05:06:29;10.48;;;3.75;;
83145;SDS011;73037;51.110;4.706;2024-01-10T05:08:54;8.05;;;3.65;;
83145;SDS011;73037;51.110;4.706;2024-01-10T05:11:23;7.65;;;3.30;;
83145;SDS011;73037;51.110;4.706;2024-01-10T05:13:50;8.52;;;3.70;;
83145;SDS011;73037;51.110;4.706;2024-01-10T05:16:16;6.95;;;3.33;;
83145;SDS011;73037;51.110;4.706;2024-01-10T05:18:42;6.50;;;3.40;;
83145;SDS011;73037;51.110;4.706;2024-01-10T05:21:08;8.27;;;3.42;;
83145;SDS011;73037;51.110;4.706;2024-01-10T05:23:34;8.20;;;3.22;;
83145;SDS011;73037;51.110;4.706;2024-01-10T05:26:00;7.15;;;3.33;;
83145;SDS011;73037;51.110;4.706;2024-01-10T05:28:26;7.75;;;3.72;;
83145;SDS011;73037;51.110;4.706;2024-01-10T05:30:58;7.53;;;3.45;;
83145;SDS011;73037;51.110;4.706;2024-01-10T05:33:24;8.35;;;3.75;;
83145;SDS011;73037;51.110;4.706;2024-01-10T05:35:50;5.25;;;2.90;;
83145;SDS011;73037;51.110;4.706;2024-01-10T05:38:16;6.25;;;2.83;;
83145;SDS011;73037;51.110;4.706;2024-01-10T05:40:42;9.15;;;3.80;;
83145;SDS011;73037;51.110;4.706;2024-01-10T05:43:08;6.82;;;3.42;;
83145;SDS011;73037;51.110;4.706;2024-01-10T05:45:37;6.10;;;3.13;;
83145;SDS011;73037;51.110;4.706;2024-01-10T05:48:03;8.75;;;3.47;;
83145;SDS011;73037;51.110;4.706;2024-01-10T05:50:29;8.27;;;3.83;;
83145;SDS011;73037;51.110;4.706;2024-01-10T05:52:55;8.20;;;3.40;;
83145;SDS011;73037;51.110;4.706;2024-01-10T05:55:21;5.93;;;3.13;;
83145;SDS011;73037;51.110;4.706;2024-01-10T05:57:48;7.35;;;3.47;;
83145;SDS011;73037;51.110;4.706;2024-01-10T06:00:14;11.70;;;3.72;;
83145;SDS011;73037;51.110;4.706;2024-01-10T06:02:41;7.47;;;3.65;;
83145;SDS011;73037;51.110;4.706;2024-01-10T06:05:08;7.28;;;3.47;;
83145;SDS011;73037;51.110;4.706;2024-01-10T06:07:35;7.47;;;3.90;;
83145;SDS011;73037;51.110;4.706;2024-01-10T06:10:01;10.02;;;3.50;;
83145;SDS011;73037;51.110;4.706;2024-01-10T06:12:27;8.00;;;3.60;;
83145;SDS011;73037;51.110;4.706;2024-01-10T06:14:53;10.10;;;3.67;;
83145;SDS011;73037;51.110;4.706;2024-01-10T06:17:19;7.32;;;3.25;;
83145;SDS011;73037;51.110;4.706;2024-01-10T06:19:45;7.25;;;3.67;;
83145;SDS011;73037;51.110;4.706;2024-01-10T06:22:11;7.25;;;3.42;;
83145;SDS011;73037;51.110;4.706;2024-01-10T06:24:36;8.73;;;4.00;;
83145;SDS011;73037;51.110;4.706;2024-01-10T06:27:03;7.35;;;3.85;;
83145;SDS011;73037;51.110;4.706;2024-01-10T06:29:29;10.10;;;3.65;;
83145;SDS011;73037;51.110;4.706;2024-01-10T06:31:55;9.13;;;3.63;;
83145;SDS011;73037;51.110;4.706;2024-01-10T06:34:22;7.15;;;3.42;;
83145;SDS011;73037;51.110;4.706;2024-01-10T06:36:48;7.43;;;3.47;;
83145;SDS011;73037;51.110;4.706;2024-01-10T06:39:13;8.73;;;4.00;;
83145;SDS011;73037;51.110;4.706;2024-01-10T06:41:40;8.10;;;3.58;;
83145;SDS011;73037;51.110;4.706;2024-01-10T06:44:07;9.63;;;4.07;;
83145;SDS011;73037;51.110;4.706;2024-01-10T06:46:34;9.13;;;4.28;;
83145;SDS011;73037;51.110;4.706;2024-01-10T06:48:59;11.27;;;4.15;;
83145;SDS011;73037;51.110;4.706;2024-01-10T06:51:25;8.93;;;3.97;;
83145;SDS011;73037;51.110;4.706;2024-01-10T06:53:54;9.45;;;4.00;;
83145;SDS011;73037;51.110;4.706;2024-01-10T06:56:27;7.25;;;3.30;;
83145;SDS011;73037;51.110;4.706;2024-01-10T06:58:53;8.90;;;4.10;;
83145;SDS011;73037;51.110;4.706;2024-01-10T07:01:19;7.20;;;3.72;;
83145;SDS011;73037;51.110;4.706;2024-01-10T07:03:47;7.40;;;3.30;;
83145;SDS011;73037;51.110;4.706;2024-01-10T07:06:13;9.07;;;4.15;;
83145;SDS011;73037;51.110;4.706;2024-01-10T07:08:42;9.25;;;4.00;;
83145;SDS011;73037;51.110;4.706;2024-01-10T07:11:09;8.20;;;3.55;;
83145;SDS011;73037;51.110;4.706;2024-01-10T07:13:36;7.85;;;3.95;;
83145;SDS011;73037;51.110;4.706;2024-01-10T07:16:02;9.48;;;3.90;;
83145;SDS011;73037;51.110;4.706;2024-01-10T07:18:28;8.98;;;3.72;;
83145;SDS011;73037;51.110;4.706;2024-01-10T07:20:54;12.05;;;4.25;;
83145;SDS011;73037;51.110;4.706;2024-01-10T07:23:20;10.40;;;4.40;;
83145;SDS011;73037;51.110;4.706;2024-01-10T07:25:46;10.43;;;3.97;;
83145;SDS011;73037;51.110;4.706;2024-01-10T07:28:11;6.60;;;3.78;;
83145;SDS011;73037;51.110;4.706;2024-01-10T07:30:37;8.10;;;4.35;;
83145;SDS011;73037;51.110;4.706;2024-01-10T07:33:03;11.23;;;4.28;;
83145;SDS011;73037;51.110;4.706;2024-01-10T07:35:28;7.32;;;3.58;;
83145;SDS011;73037;51.110;4.706;2024-01-10T07:37:55;8.25;;;3.55;;
83145;SDS011;73037;51.110;4.706;2024-01-10T07:40:20;8.38;;;3.78;;
83145;SDS011;73037;51.110;4.706;2024-01-10T07:42:47;7.93;;;4.15;;
83145;SDS011;73037;51.110;4.706;2024-01-10T07:45:13;7.35;;;3.50;;
83145;SDS011;73037;51.110;4.706;2024-01-10T07:47:39;9.73;;;4.35;;
83145;SDS011;73037;51.110;4.706;2024-01-10T07:50:08;9.02;;;4.20;;
83145;SDS011;73037;51.110;4.706;2024-01-10T07:52:35;8.75;;;3.95;;
83145;SDS011;73037;51.110;4.706;2024-01-10T07:55:01;9.23;;;4.10;;
83145;SDS011;73037;51.110;4.706;2024-01-10T07:57:30;8.38;;;4.28;;
83145;SDS011;73037;51.110;4.706;2024-01-10T07:59:56;8.38;;;3.88;;
83145;SDS011;73037;51.110;4.706;2024-01-10T08:02:21;9.27;;;3.33;;
83145;SDS011;73037;51.110;4.706;2024-01-10T08:04:47;9.60;;;4.05;;
83145;SDS011;73037;51.110;4.706;2024-01-10T08:07:13;8.65;;;3.78;;
83145;SDS011;73037;51.110;4.706;2024-01-10T08:09:39;9.15;;;3.97;;
83145;SDS011;73037;51.110;4.706;2024-01-10T08:12:05;10.65;;;4.20;;
83145;SDS011;73037;51.110;4.706;2024-01-10T08:14:31;9.63;;;4.07;;
83145;SDS011;73037;51.110;4.706;2024-01-10T08:16:57;8.93;;;3.60;;
83145;SDS011;73037;51.110;4.706;2024-01-10T08:19:25;8.27;;;3.92;;
83145;SDS011;73037;51.110;4.706;2024-01-10T08:21:54;8.18;;;3.65;;
83145;SDS011;73037;51.110;4.706;2024-01-10T08:24:20;8.75;;;3.95;;
83145;SDS011;73037;51.110;4.706;2024-01-10T08:26:46;9.57;;;4.43;;
83145;SDS011;73037;51.110;4.706;2024-01-10T08:29:17;8.95;;;4.25;;
83145;SDS011;73037;51.110;4.706;2024-01-10T08:31:44;10.30;;;4.57;;
83145;SDS011;73037;51.110;4.706;2024-01-10T08:34:10;8.57;;;4.35;;
83145;SDS011;73037;51.110;4.706;2024-01-10T08:36:36;7.97;;;4.40;;
83145;SDS011;73037;51.110;4.706;2024-01-10T08:39:02;10.52;;;4.78;;
83145;SDS011;73037;51.110;4.706;2024-01-10T08:41:29;10.25;;;4.53;;
83145;SDS011;73037;51.110;4.706;2024-01-10T08:43:55;10.75;;;5.05;;
83145;SDS011;73037;51.110;4.706;2024-01-10T08:46:21;11.43;;;5.10;;
83145;SDS011;73037;51.110;4.706;2024-01-10T08:48:46;10.95;;;4.45;;
83145;SDS011;73037;51.110;4.706;2024-01-10T08:51:13;8.25;;;4.05;;
83145;SDS011;73037;51.110;4.706;2024-01-10T08:53:41;10.68;;;4.68;;
83145;SDS011;73037;51.110;4.706;2024-01-10T08:56:08;9.38;;;4.47;;
83145;SDS011;73037;51.110;4.706;2024-01-10T08:58:33;13.65;;;4.93;;
83145;SDS011;73037;51.110;4.706;2024-01-10T09:00:59;10.95;;;4.72;;
83145;SDS011;73037;51.110;4.706;2024-01-10T09:03:25;11.00;;;4.45;;
83145;SDS011;73037;51.110;4.706;2024-01-10T09:05:50;9.27;;;4.57;;
83145;SDS011;73037;51.110;4.706;2024-01-10T09:08:16;11.95;;;4.97;;
83145;SDS011;73037;51.110;4.706;2024-01-10T09:10:42;10.25;;;4.93;;
83145;SDS011;73037;51.110;4.706;2024-01-10T09:13:07;10.07;;;4.80;;
83145;SDS011;73037;51.110;4.706;2024-01-10T09:15:34;10.40;;;4.65;;
83145;SDS011;73037;51.110;4.706;2024-01-10T09:17:59;9.82;;;4.95;;
83145;SDS011;73037;51.110;4.706;2024-01-10T09:20:25;11.90;;;4.75;;
83145;SDS011;73037;51.110;4.706;2024-01-10T09:22:51;11.65;;;5.38;;
83145;SDS011;73037;51.110;4.706;2024-01-10T09:25:17;9.77;;;4.82;;
83145;SDS011;73037;51.110;4.706;2024-01-10T09:27:42;11.13;;;4.93;;
83145;SDS011;73037;51.110;4.706;2024-01-10T09:30:10;13.65;;;5.18;;
83145;SDS011;73037;51.110;4.706;2024-01-10T09:32:36;11.05;;;4.78;;
83145;SDS011;73037;51.110;4.706;2024-01-10T09:35:02;12.20;;;5.07;;
83145;SDS011;73037;51.110;4.706;2024-01-10T09:37:28;14.07;;;5.32;;
83145;SDS011;73037;51.110;4.706;2024-01-10T09:39:55;14.85;;;6.03;;
83145;SDS011;73037;51.110;4.706;2024-01-10T09:42:20;13.10;;;5.40;;
83145;SDS011;73037;51.110;4.706;2024-01-10T09:44:50;11.90;;;5.07;;
83145;SDS011;73037;51.110;4.706;2024-01-10T09:47:16;9.75;;;5.38;;
83145;SDS011;73037;51.110;4.706;2024-01-10T09:49:44;13.27;;;5.20;;
83145;SDS011;73037;51.110;4.706;2024-01-10T09:52:13;13.18;;;5.40;;
83145;SDS011;73037;51.110;4.706;2024-01-10T09:54:55;12.43;;;5.82;;
83145;SDS011;73037;51.110;4.706;2024-01-10T09:57:22;10.43;;;5.25;;
83145;SDS011;73037;51.110;4.706;2024-01-10T09:59:49;10.80;;;5.55;;
83145;SDS011;73037;51.110;4.706;2024-01-10T10:04:44;10.77;;;5.38;;
83145;SDS011;73037;51.110;4.706;2024-01-10T10:07:16;12.85;;;5.90;;
83145;SDS011;73037;51.110;4.706;2024-01-10T10:09:42;12.90;;;5.20;;
83145;SDS011;73037;51.110;4.706;2024-01-10T10:12:08;11.50;;;5.13;;
83145;SDS011;73037;51.110;4.706;2024-01-10T10:14:33;13.00;;;5.97;;
83145;SDS011;73037;51.110;4.706;2024-01-10T10:17:15;13.93;;;5.63;;
83145;SDS011;73037;51.110;4.706;2024-01-10T10:19:42;12.70;;;6.00;;
83145;SDS011;73037;51.110;4.706;2024-01-10T10:22:09;11.88;;;5.68;;
83145;SDS011;73037;51.110;4.706;2024-01-10T10:24:36;13.02;;;5.50;;
83145;SDS011;73037;51.110;4.706;2024-01-10T10:27:07;11.60;;;5.35;;
83145;SDS011;73037;51.110;4.706;2024-01-10T10:29:36;11.45;;;5.82;;
83145;SDS011;73037;51.110;4.706;2024-01-10T10:32:03;14.65;;;6.05;;
83145;SDS011;73037;51.110;4.706;2024-01-10T10:34:33;10.82;;;5.60;;
83145;SDS011;73037;51.110;4.706;2024-01-10T10:36:58;67.07;;;11.40;;
83145;SDS011;73037;51.110;4.706;2024-01-10T10:39:24;14.23;;;6.32;;
83145;SDS011;73037;51.110;4.706;2024-01-10T10:41:50;38.00;;;9.15;;
83145;SDS011;73037;51.110;4.706;2024-01-10T10:44:19;12.77;;;6.13;;
83145;SDS011;73037;51.110;4.706;2024-01-10T10:46:52;14.73;;;5.82;;
83145;SDS011;73037;51.110;4.706;2024-01-10T10:49:23;15.68;;;6.00;;
83145;SDS011;73037;51.110;4.706;2024-01-10T10:51:55;14.82;;;5.10;;
83145;SDS011;73037;51.110;4.706;2024-01-10T10:54:22;16.33;;;6.63;;
83145;SDS011;73037;51.110;4.706;2024-01-10T10:59:16;15.70;;;5.88;;
83145;SDS011;73037;51.110;4.706;2024-01-10T11:01:46;12.52;;;6.03;;
83145;SDS011;73037;51.110;4.706;2024-01-10T11:04:12;13.63;;;6.32;;
83145;SDS011;73037;51.110;4.706;2024-01-10T11:06:39;13.38;;;6.35;;
83145;SDS011;73037;51.110;4.706;2024-01-10T11:09:06;12.95;;;6.15;;
83145;SDS011;73037;51.110;4.706;2024-01-10T11:11:42;14.85;;;5.70;;
83145;SDS011;73037;51.110;4.706;2024-01-10T11:18:02;13.57;;;6.07;;
83145;SDS011;73037;51.110;4.706;2024-01-10T11:23:32;17.67;;;7.25;;
83145;SDS011;73037;51.110;4.706;2024-01-10T11:26:16;14.10;;;5.55;;
83145;SDS011;73037;51.110;4.706;2024-01-10T11:28:43;11.90;;;6.13;;
83145;SDS011;73037;51.110;4.706;2024-01-10T11:31:09;14.15;;;6.18;;
83145;SDS011;73037;51.110;4.706;2024-01-10T11:33:39;13.60;;;6.15;;
83145;SDS011;73037;51.110;4.706;2024-01-10T11:38:42;13.95;;;6.93;;
83145;SDS011;73037;51.110;4.706;2024-01-10T11:41:22;13.38;;;5.45;;
83145;SDS011;73037;51.110;4.706;2024-01-10T11:44:25;14.73;;;7.10;;
83145;SDS011;73037;51.110;4.706;2024-01-10T11:46:53;17.58;;;7.22;;
83145;SDS011;73037;51.110;4.706;2024-01-10T11:49:20;14.80;;;6.60;;
83145;SDS011;73037;51.110;4.706;2024-01-10T11:51:52;18.30;;;8.52;;
83145;SDS011;73037;51.110;4.706;2024-01-10T11:59:47;13.77;;;6.47;;
83145;SDS011;73037;51.110;4.706;2024-01-10T12:02:24;14.93;;;6.57;;
83145;SDS011;73037;51.110;4.706;2024-01-10T12:04:51;14.52;;;6.35;;
83145;SDS011;73037;51.110;4.706;2024-01-10T12:07:17;14.98;;;6.38;;
83145;SDS011;73037;51.110;4.706;2024-01-10T12:09:44;14.38;;;6.53;;
83145;SDS011;73037;51.110;4.706;2024-01-10T12:12:12;13.18;;;6.65;;
83145;SDS011;73037;51.110;4.706;2024-01-10T12:14:37;16.92;;;6.72;;
83145;SDS011;73037;51.110;4.706;2024-01-10T12:17:05;16.92;;;7.57;;
83145;SDS011;73037;51.110;4.706;2024-01-10T12:19:32;18.25;;;7.38;;
83145;SDS011;73037;51.110;4.706;2024-01-10T12:21:59;14.73;;;6.85;;
83145;SDS011;73037;51.110;4.706;2024-01-10T12:24:27;15.13;;;6.90;;
83145;SDS011;73037;51.110;4.706;2024-01-10T12:26:54;16.83;;;7.32;;
83145;SDS011;73037;51.110;4.706;2024-01-10T12:29:21;14.43;;;7.18;;
83145;SDS011;73037;51.110;4.706;2024-01-10T12:31:47;12.20;;;6.70;;
83145;SDS011;73037;51.110;4.706;2024-01-10T12:34:13;16.42;;;7.30;;
83145;SDS011;73037;51.110;4.706;2024-01-10T12:36:40;15.63;;;7.50;;
83145;SDS011;73037;51.110;4.706;2024-01-10T12:39:09;12.43;;;6.78;;
83145;SDS011;73037;51.110;4.706;2024-01-10T12:41:36;13.68;;;7.05;;
83145;SDS011;73037;51.110;4.706;2024-01-10T12:44:02;12.07;;;6.60;;
83145;SDS011;73037;51.110;4.706;2024-01-10T12:46:30;13.02;;;6.10;;
83145;SDS011;73037;51.110;4.706;2024-01-10T12:49:06;16.48;;;7.57;;
83145;SDS011;73037;51.110;4.706;2024-01-10T12:51:33;19.50;;;7.60;;
83145;SDS011;73037;51.110;4.706;2024-01-10T12:54:01;14.90;;;6.50;;
83145;SDS011;73037;51.110;4.706;2024-01-10T12:58:54;12.80;;;6.57;;
83145;SDS011;73037;51.110;4.706;2024-01-10T13:01:21;13.15;;;6.78;;
83145;SDS011;73037;51.110;4.706;2024-01-10T13:03:47;13.77;;;7.15;;
83145;SDS011;73037;51.110;4.706;2024-01-10T13:06:13;14.32;;;7.72;;
83145;SDS011;73037;51.110;4.706;2024-01-10T13:08:40;17.88;;;8.02;;
83145;SDS011;73037;51.110;4.706;2024-01-10T13:11:05;14.60;;;6.82;;
83145;SDS011;73037;51.110;4.706;2024-01-10T13:13:34;17.27;;;7.55;;
83145;SDS011;73037;51.110;4.706;2024-01-10T13:16:00;12.90;;;6.93;;
83145;SDS011;73037;51.110;4.706;2024-01-10T13:18:27;16.42;;;7.20;;
83145;SDS011;73037;51.110;4.706;2024-01-10T13:20:53;17.60;;;7.75;;
83145;SDS011;73037;51.110;4.706;2024-01-10T13:23:19;18.33;;;8.48;;
83145;SDS011;73037;51.110;4.706;2024-01-10T13:28:13;17.75;;;8.25;;
83145;SDS011;73037;51.110;4.706;2024-01-10T13:30:40;15.85;;;7.28;;
83145;SDS011;73037;51.110;4.706;2024-01-10T13:33:06;16.77;;;7.75;;
83145;SDS011;73037;51.110;4.706;2024-01-10T13:35:34;16.35;;;7.60;;
83145;SDS011;73037;51.110;4.706;2024-01-10T13:38:00;15.63;;;7.18;;
83145;SDS011;73037;51.110;4.706;2024-01-10T13:40:26;18.35;;;7.07;;
83145;SDS011;73037;51.110;4.706;2024-01-10T13:42:51;15.57;;;7.32;;
83145;SDS011;73037;51.110;4.706;2024-01-10T13:45:18;14.95;;;6.82;;
83145;SDS011;73037;51.110;4.706;2024-01-10T13:47:44;15.82;;;7.55;;
83145;SDS011;73037;51.110;4.706;2024-01-10T13:50:09;15.65;;;6.65;;
83145;SDS011;73037;51.110;4.706;2024-01-10T13:52:35;15.77;;;7.70;;
83145;SDS011;73037;51.110;4.706;2024-01-10T13:55:01;16.08;;;7.53;;
83145;SDS011;73037;51.110;4.706;2024-01-10T13:57:29;16.40;;;8.23;;
83145;SDS011;73037;51.110;4.706;2024-01-10T13:59:57;16.23;;;7.30;;
83145;SDS011;73037;51.110;4.706;2024-01-10T14:02:23;16.38;;;7.57;;
83145;SDS011;73037;51.110;4.706;2024-01-10T14:04:50;15.48;;;8.10;;
83145;SDS011;73037;51.110;4.706;2024-01-10T14:07:16;16.77;;;7.68;;
83145;SDS011;73037;51.110;4.706;2024-01-10T14:09:42;17.67;;;7.28;;
83145;SDS011;73037;51.110;4.706;2024-01-10T14:12:08;16.10;;;7.97;;
83145;SDS011;73037;51.110;4.706;2024-01-10T14:14:33;17.67;;;7.30;;
83145;SDS011;73037;51.110;4.706;2024-01-10T14:16:59;16.30;;;7.95;;
83145;SDS011;73037;51.110;4.706;2024-01-10T14:19:25;16.58;;;7.63;;
83145;SDS011;73037;51.110;4.706;2024-01-10T14:21:51;16.95;;;7.65;;
83145;SDS011;73037;51.110;4.706;2024-01-10T14:24:17;18.13;;;7.30;;
83145;SDS011;73037;51.110;4.706;2024-01-10T14:26:43;17.80;;;7.80;;
83145;SDS011;73037;51.110;4.706;2024-01-10T14:29:09;18.80;;;7.47;;
83145;SDS011;73037;51.110;4.706;2024-01-10T14:31:35;16.13;;;7.88;;
83145;SDS011;73037;51.110;4.706;2024-01-10T14:34:02;17.90;;;8.05;;
83145;SDS011;73037;51.110;4.706;2024-01-10T14:36:28;14.52;;;7.00;;
83145;SDS011;73037;51.110;4.706;2024-01-10T14:38:54;16.27;;;7.32;;
83145;SDS011;73037;51.110;4.706;2024-01-10T14:41:20;19.50;;;7.75;;
83145;SDS011;73037;51.110;4.706;2024-01-10T14:43:46;17.00;;;8.02;;
83145;SDS011;73037;51.110;4.706;2024-01-10T14:46:11;16.33;;;7.57;;
83145;SDS011;73037;51.110;4.706;2024-01-10T14:48:37;16.70;;;7.20;;
83145;SDS011;73037;51.110;4.706;2024-01-10T14:51:03;14.82;;;7.47;;
83145;SDS011;73037;51.110;4.706;2024-01-10T14:53:29;17.83;;;7.80;;
83145;SDS011;73037;51.110;4.706;2024-01-10T14:55:55;17.27;;;7.80;;
83145;SDS011;73037;51.110;4.706;2024-01-10T14:58:21;16.67;;;8.10;;
83145;SDS011;73037;51.110;4.706;2024-01-10T15:00:47;15.68;;;7.40;;
83145;SDS011;73037;51.110;4.706;2024-01-10T15:03:13;16.88;;;8.38;;
83145;SDS011;73037;51.110;4.706;2024-01-10T15:05:40;15.75;;;6.93;;